createdAt,value
2022-09-21T00:00:02.241Z,8.40
2022-09-21T00:02:31.588Z,8.30
2022-09-21T00:04:59.493Z,8.20
2022-09-21T00:07:31.172Z,8.10
2022-09-21T00:10:08.148Z,8.10
2022-09-21T00:12:38.567Z,8.00
2022-09-21T00:15:14.175Z,8.00
2022-09-21T00:17:46.615Z,8.00
2022-09-21T00:20:15.360Z,7.90
2022-09-21T00:22:45.608Z,7.90
2022-09-21T00:25:13.763Z,7.80
2022-09-21T00:27:42.464Z,7.80
2022-09-21T00:30:11.528Z,7.80
2022-09-21T00:32:40.428Z,7.70
2022-09-21T00:35:10.172Z,7.70
2022-09-21T00:37:38.255Z,7.60
2022-09-21T00:40:06.968Z,7.60
2022-09-21T00:42:35.662Z,7.60
2022-09-21T00:45:03.467Z,7.60
2022-09-21T00:47:34.048Z,7.50
2022-09-21T00:50:03.410Z,7.50
2022-09-21T00:52:33.767Z,7.60
2022-09-21T00:55:03.567Z,7.60
2022-09-21T00:57:31.998Z,7.80
2022-09-21T01:00:02.218Z,7.70
2022-09-21T01:02:30.142Z,7.90
2022-09-21T01:04:58.107Z,7.70
2022-09-21T01:07:27.575Z,7.50
2022-09-21T01:09:59.047Z,7.70
2022-09-21T01:12:35.035Z,7.60
2022-09-21T01:15:20.772Z,7.40
2022-09-21T01:17:52.668Z,7.40
2022-09-21T01:20:48.771Z,7.60
2022-09-21T01:23:24.823Z,7.50
2022-09-21T01:26:01.337Z,7.50
2022-09-21T01:28:32.235Z,7.30
2022-09-21T01:31:06.117Z,7.10
2022-09-21T01:33:36.168Z,7.20
2022-09-21T01:36:06.964Z,7.10
2022-09-21T01:38:36.695Z,6.90
2022-09-21T01:41:06.805Z,6.80
2022-09-21T01:43:36.444Z,6.70
2022-09-21T01:49:54.987Z,6.70
2022-09-21T01:52:24.451Z,6.60
2022-09-21T01:54:53.766Z,6.70
2022-09-21T01:57:25.529Z,6.50
2022-09-21T01:59:54.602Z,6.50
2022-09-21T02:02:25.636Z,6.50
2022-09-21T02:04:54.953Z,6.50
2022-09-21T02:07:22.869Z,6.60
2022-09-21T02:09:50.909Z,6.60
2022-09-21T02:12:19.500Z,6.50
2022-09-21T02:14:47.435Z,6.30
2022-09-21T02:17:28.589Z,6.40
2022-09-21T02:20:03.845Z,6.60
2022-09-21T02:22:34.259Z,6.50
2022-09-21T02:25:07.049Z,6.20
2022-09-21T02:27:37.264Z,6.10
2022-09-21T02:30:07.485Z,6.00
2022-09-21T02:32:38.219Z,6.00
2022-09-21T02:35:11.440Z,6.00
2022-09-21T02:37:41.845Z,6.00
2022-09-21T02:40:14.777Z,5.90
2022-09-21T02:42:43.690Z,6.20
2022-09-21T02:45:14.373Z,6.20
2022-09-21T02:47:45.843Z,6.10
2022-09-21T02:50:18.187Z,5.90
2022-09-21T02:52:46.332Z,5.90
2022-09-21T02:55:14.376Z,5.80
2022-09-21T03:01:29.694Z,6.00
2022-09-21T03:03:57.710Z,6.10
2022-09-21T03:06:27.185Z,6.00
2022-09-21T03:08:55.186Z,6.10
2022-09-21T03:11:23.029Z,6.20
2022-09-21T03:13:51.083Z,6.10
2022-09-21T03:16:19.076Z,6.20
2022-09-21T03:18:46.885Z,6.20
2022-09-21T03:21:15.009Z,6.00
2022-09-21T03:23:44.340Z,5.90
2022-09-21T03:26:15.210Z,5.80
2022-09-21T03:28:43.153Z,5.70
2022-09-21T03:31:11.349Z,5.90
2022-09-21T03:33:39.255Z,5.80
2022-09-21T03:36:07.855Z,5.90
2022-09-21T03:38:36.444Z,6.00
2022-09-21T03:41:05.982Z,5.60
2022-09-21T03:43:33.958Z,5.60
2022-09-21T03:46:01.966Z,5.50
2022-09-21T03:48:29.979Z,5.20
2022-09-21T03:50:58.205Z,5.10
2022-09-21T03:53:26.182Z,5.10
2022-09-21T03:55:54.286Z,5.20
2022-09-21T03:58:23.682Z,5.10
2022-09-21T04:00:51.617Z,5.10
2022-09-21T04:03:19.615Z,5.30
2022-09-21T04:05:47.657Z,5.50
2022-09-21T04:08:15.480Z,5.50
2022-09-21T04:10:44.087Z,5.40
2022-09-21T04:13:13.585Z,5.20
2022-09-21T04:15:42.968Z,4.90
2022-09-21T04:18:12.119Z,4.80
2022-09-21T04:20:41.480Z,4.90
2022-09-21T04:23:10.123Z,5.10
2022-09-21T04:25:38.224Z,5.10
2022-09-21T04:28:06.276Z,4.70
2022-09-21T04:30:37.775Z,4.80
2022-09-21T04:33:07.615Z,4.70
2022-09-21T04:39:16.589Z,4.80
2022-09-21T04:41:45.572Z,4.80
2022-09-21T04:44:13.801Z,4.80
2022-09-21T04:46:42.477Z,4.90
2022-09-21T04:49:11.861Z,4.90
2022-09-21T04:51:40.149Z,4.80
2022-09-21T04:54:08.294Z,4.90
2022-09-21T04:56:36.512Z,4.80
2022-09-21T04:59:05.033Z,4.80
2022-09-21T05:01:33.232Z,4.70
2022-09-21T05:04:02.586Z,4.60
2022-09-21T05:06:32.396Z,4.70
2022-09-21T05:09:17.978Z,4.40
2022-09-21T05:11:45.964Z,4.40
2022-09-21T05:14:14.169Z,4.40
2022-09-21T05:16:42.520Z,4.50
2022-09-21T05:19:16.591Z,4.50
2022-09-21T05:21:46.506Z,4.30
2022-09-21T05:24:23.634Z,4.10
2022-09-21T05:26:57.521Z,4.00
2022-09-21T05:29:26.185Z,4.20
2022-09-21T05:31:57.187Z,4.10
2022-09-21T05:34:43.626Z,4.30
2022-09-21T05:37:18.537Z,4.40
2022-09-21T05:39:47.423Z,4.70
2022-09-21T05:42:15.962Z,4.70
2022-09-21T05:44:44.864Z,4.70
2022-09-21T05:47:29.282Z,4.80
2022-09-21T05:50:00.736Z,4.50
2022-09-21T05:52:32.907Z,4.50
2022-09-21T05:55:04.304Z,4.50
2022-09-21T05:57:39.496Z,4.40
2022-09-21T06:00:12.705Z,4.60
2022-09-21T06:03:04.804Z,4.60
2022-09-21T06:05:33.013Z,4.60
2022-09-21T06:08:02.709Z,4.50
2022-09-21T06:10:31.198Z,4.50
2022-09-21T06:12:59.186Z,4.60
2022-09-21T06:15:27.400Z,4.70
2022-09-21T06:17:55.380Z,4.90
2022-09-21T06:20:25.319Z,4.90
2022-09-21T06:22:53.485Z,4.80
2022-09-21T06:25:23.306Z,4.90
2022-09-21T06:27:51.261Z,5.00
2022-09-21T06:30:19.450Z,5.10
2022-09-21T06:32:47.521Z,5.20
2022-09-21T06:35:15.512Z,5.30
2022-09-21T06:37:48.396Z,5.70
2022-09-21T06:40:16.602Z,6.00
2022-09-21T06:42:46.261Z,6.30
2022-09-21T06:45:14.410Z,6.60
2022-09-21T06:47:48.244Z,7.00
2022-09-21T06:50:16.519Z,7.30
2022-09-21T06:52:44.525Z,7.70
2022-09-21T06:55:12.666Z,7.90
2022-09-21T06:57:40.683Z,7.90
2022-09-21T07:00:11.514Z,7.80
2022-09-21T07:02:39.530Z,7.70
2022-09-21T07:05:08.029Z,7.60
2022-09-21T07:07:36.455Z,7.80
2022-09-21T07:10:05.517Z,8.10
2022-09-21T07:12:34.557Z,7.80
2022-09-21T07:15:02.683Z,7.70
2022-09-21T07:17:34.528Z,7.70
2022-09-21T07:20:03.112Z,7.90
2022-09-21T07:22:31.171Z,8.20
2022-09-21T07:24:59.081Z,8.20
2022-09-21T07:27:27.211Z,8.60
2022-09-21T07:29:55.299Z,9.20
2022-09-21T07:32:23.250Z,9.70
2022-09-21T07:34:57.062Z,10.30
2022-09-21T07:37:25.100Z,10.70
2022-09-21T07:39:53.124Z,11.00
2022-09-21T07:42:22.771Z,11.50
2022-09-21T07:44:51.222Z,12.00
2022-09-21T07:47:19.898Z,12.20
2022-09-21T07:49:48.062Z,12.10
2022-09-21T07:52:18.419Z,13.20
2022-09-21T07:54:46.459Z,13.00
2022-09-21T07:57:31.834Z,12.60
2022-09-21T07:59:59.770Z,12.90
2022-09-21T08:02:27.772Z,13.10
2022-09-21T08:04:55.923Z,13.20
2022-09-21T08:07:25.444Z,13.10
2022-09-21T08:09:53.438Z,13.80
2022-09-21T08:12:21.578Z,13.80
2022-09-21T08:14:49.519Z,14.00
2022-09-21T08:17:17.453Z,14.20
2022-09-21T08:19:45.504Z,14.70
2022-09-21T08:22:14.195Z,14.40
2022-09-21T08:24:44.541Z,14.80
2022-09-21T08:27:12.587Z,14.70
2022-09-21T08:29:40.429Z,14.80
2022-09-21T08:32:08.340Z,15.20
2022-09-21T08:34:36.351Z,15.30
2022-09-21T08:37:04.273Z,15.50
2022-09-21T08:39:32.146Z,15.40
2022-09-21T08:42:14.070Z,15.50
2022-09-21T08:44:42.910Z,15.50
2022-09-21T08:47:12.836Z,16.10
2022-09-21T08:49:41.346Z,16.30
2022-09-21T08:52:15.534Z,16.50
2022-09-21T08:54:48.092Z,16.30
2022-09-21T08:57:17.590Z,16.70
2022-09-21T08:59:46.220Z,16.60
2022-09-21T09:02:35.518Z,16.90
2022-09-21T09:05:06.616Z,17.30
2022-09-21T09:07:51.549Z,16.70
2022-09-21T09:10:27.959Z,16.90
2022-09-21T09:13:02.183Z,17.20
2022-09-21T09:15:40.336Z,17.50
2022-09-21T09:18:10.764Z,17.60
2022-09-21T09:20:40.504Z,17.50
2022-09-21T09:23:12.503Z,17.60
2022-09-21T09:25:41.608Z,17.70
2022-09-21T09:28:18.848Z,17.60
2022-09-21T09:30:46.762Z,17.50
2022-09-21T09:33:17.664Z,17.90
2022-09-21T09:35:47.288Z,18.00
2022-09-21T09:38:20.383Z,17.80
2022-09-21T09:40:57.887Z,18.10
2022-09-21T09:43:33.938Z,18.10
2022-09-21T09:46:05.309Z,18.50
2022-09-21T09:48:49.629Z,18.50
2022-09-21T09:51:19.935Z,18.50
2022-09-21T09:53:47.818Z,18.30
2022-09-21T09:56:15.805Z,18.70
2022-09-21T09:58:46.481Z,18.30
2022-09-21T10:01:42.867Z,18.80
2022-09-21T10:04:12.097Z,18.70
2022-09-21T10:06:45.198Z,18.80
2022-09-21T10:09:20.479Z,18.80
2022-09-21T10:11:48.636Z,19.00
2022-09-21T10:14:19.754Z,18.50
2022-09-21T10:16:48.099Z,19.00
2022-09-21T10:19:16.627Z,19.30
2022-09-21T10:21:48.799Z,19.40
2022-09-21T10:24:23.419Z,19.20
2022-09-21T10:26:54.490Z,18.90
2022-09-21T10:29:32.211Z,19.10
2022-09-21T10:32:01.518Z,19.50
2022-09-21T10:34:30.262Z,19.50
2022-09-21T10:36:59.058Z,19.50
2022-09-21T10:39:28.728Z,19.80
2022-09-21T10:41:59.826Z,20.10
2022-09-21T10:44:30.827Z,20.00
2022-09-21T10:46:58.703Z,20.00
2022-09-21T10:49:28.844Z,19.70
2022-09-21T10:51:57.781Z,19.60
2022-09-21T10:54:27.661Z,19.70
2022-09-21T10:56:57.669Z,19.70
2022-09-21T10:59:27.416Z,19.40
2022-09-21T11:01:57.662Z,19.30
2022-09-21T11:04:33.715Z,19.30
2022-09-21T11:07:05.539Z,19.50
2022-09-21T11:09:35.567Z,19.20
2022-09-21T11:12:05.159Z,19.40
2022-09-21T11:14:43.916Z,19.40
2022-09-21T11:17:16.438Z,19.40
2022-09-21T11:19:47.971Z,19.70
2022-09-21T11:22:19.515Z,19.50
2022-09-21T11:24:50.169Z,19.40
2022-09-21T11:27:19.828Z,19.40
2022-09-21T11:29:53.682Z,19.20
2022-09-21T11:32:48.279Z,18.90
2022-09-21T11:35:35.589Z,19.10
2022-09-21T11:38:10.083Z,19.40
2022-09-21T11:40:45.232Z,19.40
2022-09-21T11:43:23.571Z,19.30
2022-09-21T11:46:00.277Z,19.50
2022-09-21T11:48:36.726Z,19.50
2022-09-21T11:51:13.014Z,19.40
2022-09-21T11:53:53.614Z,19.50
2022-09-21T11:56:32.877Z,19.40
2022-09-21T11:59:11.983Z,19.20
2022-09-21T12:01:54.557Z,19.30
2022-09-21T12:04:32.549Z,19.30
2022-09-21T12:07:20.484Z,19.10
2022-09-21T12:10:14.821Z,19.10
2022-09-21T12:12:44.911Z,19.10
2022-09-21T12:15:15.097Z,19.20
2022-09-21T12:17:49.524Z,19.50
2022-09-21T12:20:22.249Z,19.30
2022-09-21T12:22:52.883Z,19.10
2022-09-21T12:25:22.755Z,19.20
2022-09-21T12:27:52.948Z,19.00
2022-09-21T12:30:22.263Z,19.10
2022-09-21T12:32:54.337Z,18.80
2022-09-21T12:35:26.705Z,19.00
2022-09-21T12:37:58.474Z,19.10
2022-09-21T12:40:30.490Z,19.20
2022-09-21T12:43:02.312Z,19.00
2022-09-21T12:45:32.894Z,19.10
2022-09-21T12:48:02.261Z,19.20
2022-09-21T12:50:38.581Z,19.30
2022-09-21T12:53:06.609Z,18.90
2022-09-21T12:55:44.547Z,18.80
2022-09-21T12:58:18.851Z,18.90
2022-09-21T13:00:50.302Z,19.00
2022-09-21T13:03:19.921Z,18.80
2022-09-21T13:05:59.141Z,19.00
2022-09-21T13:08:27.821Z,19.30
2022-09-21T13:11:01.013Z,18.90
2022-09-21T13:13:31.065Z,18.90
2022-09-21T13:16:00.071Z,18.60
2022-09-21T13:18:32.592Z,19.00
2022-09-21T13:21:16.248Z,18.90
2022-09-21T13:23:44.423Z,18.50
2022-09-21T13:26:13.702Z,18.20
2022-09-21T13:29:03.588Z,18.40
2022-09-21T13:31:54.391Z,18.40
2022-09-21T13:34:24.885Z,18.80
2022-09-21T13:37:23.719Z,18.80
2022-09-21T13:39:53.114Z,18.60
2022-09-21T13:42:45.644Z,18.60
2022-09-21T13:45:46.983Z,18.70
2022-09-21T13:48:19.070Z,18.50
2022-09-21T13:50:47.244Z,18.50
2022-09-21T13:53:32.405Z,18.70
2022-09-21T13:56:02.621Z,18.50
2022-09-21T13:58:32.832Z,18.50
2022-09-21T14:01:02.719Z,18.40
2022-09-21T14:03:37.420Z,17.90
2022-09-21T14:06:07.540Z,17.70
2022-09-21T14:08:38.531Z,17.80
2022-09-21T14:11:09.709Z,17.80
2022-09-21T14:13:38.758Z,17.70
2022-09-21T14:16:45.824Z,18.10
2022-09-21T14:19:51.241Z,17.50
2022-09-21T14:22:41.871Z,17.70
2022-09-21T14:25:51.119Z,17.80
2022-09-21T14:28:27.239Z,17.90
2022-09-21T14:30:57.636Z,18.00
2022-09-21T14:33:32.683Z,18.00
2022-09-21T14:36:02.156Z,17.80
2022-09-21T14:38:30.868Z,18.00
2022-09-21T14:41:01.707Z,18.00
2022-09-21T14:43:33.915Z,17.90
2022-09-21T14:46:17.107Z,18.00
2022-09-21T14:48:51.035Z,17.80
2022-09-21T14:51:21.535Z,17.60
2022-09-21T14:54:06.447Z,17.50
2022-09-21T14:56:45.775Z,17.50
2022-09-21T14:59:25.281Z,17.50
2022-09-21T15:01:59.335Z,17.20
2022-09-21T15:04:45.340Z,17.30
2022-09-21T15:07:45.073Z,17.10
2022-09-21T15:10:42.827Z,17.20
2022-09-21T15:13:19.875Z,16.80
2022-09-21T15:15:53.256Z,17.00
2022-09-21T15:18:23.011Z,16.70
2022-09-21T15:21:00.142Z,16.60
2022-09-21T15:23:28.229Z,16.60
2022-09-21T15:25:58.751Z,16.70
2022-09-21T15:28:32.708Z,16.60
2022-09-21T15:31:07.578Z,16.40
2022-09-21T15:33:38.469Z,16.70
2022-09-21T15:36:20.804Z,16.70
2022-09-21T15:38:49.472Z,16.30
2022-09-21T15:41:39.511Z,16.20
2022-09-21T15:44:14.784Z,16.20
2022-09-21T15:46:46.849Z,16.20
2022-09-21T15:49:21.386Z,16.20
2022-09-21T15:51:56.398Z,15.90
2022-09-21T15:54:32.282Z,15.80
2022-09-21T15:57:04.656Z,15.80
2022-09-21T15:59:36.850Z,15.70
2022-09-21T16:02:12.308Z,15.70
2022-09-21T16:04:40.701Z,15.80
2022-09-21T16:07:15.181Z,15.70
2022-09-21T16:09:49.982Z,15.30
2022-09-21T16:12:39.259Z,15.50
2022-09-21T16:15:15.636Z,15.30
2022-09-21T16:17:55.847Z,15.10
2022-09-21T16:20:24.063Z,15.00
2022-09-21T16:22:56.241Z,15.10
2022-09-21T16:25:27.118Z,14.90
2022-09-21T16:27:56.568Z,14.80
2022-09-21T16:30:46.154Z,14.80
2022-09-21T16:33:42.378Z,14.60
2022-09-21T16:36:36.515Z,14.60
2022-09-21T16:39:06.458Z,14.40
2022-09-21T16:41:36.119Z,14.10
2022-09-21T16:44:04.112Z,14.10
2022-09-21T16:46:33.333Z,14.10
2022-09-21T16:49:02.054Z,13.90
2022-09-21T16:51:29.859Z,13.80
2022-09-21T16:53:58.555Z,13.70
2022-09-21T16:56:27.075Z,13.70
2022-09-21T16:58:55.451Z,13.70
2022-09-21T17:01:24.004Z,13.60
2022-09-21T17:03:53.373Z,13.50
2022-09-21T17:06:22.340Z,13.50
2022-09-21T17:08:51.358Z,13.10
2022-09-21T17:11:20.702Z,13.20
2022-09-21T17:13:48.810Z,13.10
2022-09-21T17:16:18.347Z,12.90
2022-09-21T17:18:46.565Z,12.80
2022-09-21T17:21:16.006Z,12.70
2022-09-21T17:23:43.962Z,12.70
2022-09-21T17:26:15.875Z,12.70
2022-09-21T17:28:44.427Z,12.50
2022-09-21T17:31:13.903Z,12.50
2022-09-21T17:33:41.850Z,12.20
2022-09-21T17:36:12.514Z,12.10
2022-09-21T17:38:42.380Z,12.10
2022-09-21T17:41:18.107Z,12.00
2022-09-21T17:43:50.961Z,11.90
2022-09-21T17:46:20.920Z,11.90
2022-09-21T17:48:49.409Z,11.80
2022-09-21T17:51:38.205Z,11.70
2022-09-21T17:54:07.328Z,11.70
2022-09-21T17:56:43.387Z,11.80
2022-09-21T17:59:22.128Z,11.70
2022-09-21T18:01:50.379Z,11.70
2022-09-21T18:04:19.116Z,11.30
2022-09-21T18:06:47.590Z,11.40
2022-09-21T18:09:17.476Z,11.40
2022-09-21T18:11:55.295Z,11.50
2022-09-21T18:14:29.051Z,11.60
2022-09-21T18:17:03.708Z,11.40
2022-09-21T18:19:38.184Z,11.20
2022-09-21T18:22:27.373Z,11.80
2022-09-21T18:24:56.930Z,11.60
2022-09-21T18:27:25.336Z,11.40
2022-09-21T18:29:53.881Z,11.30
2022-09-21T18:32:41.748Z,11.20
2022-09-21T18:35:17.089Z,11.10
2022-09-21T18:37:51.287Z,11.10
2022-09-21T18:40:23.322Z,11.00
2022-09-21T18:42:54.126Z,11.00
2022-09-21T18:45:23.992Z,11.00
2022-09-21T18:48:06.636Z,10.60
2022-09-21T18:50:36.426Z,10.60
2022-09-21T18:53:07.726Z,10.30
2022-09-21T18:55:37.708Z,10.70
2022-09-21T18:58:05.946Z,10.50
2022-09-21T19:00:35.624Z,10.70
2022-09-21T19:03:17.000Z,10.60
2022-09-21T19:05:50.692Z,10.60
2022-09-21T19:08:24.445Z,10.70
2022-09-21T19:10:55.858Z,10.60
2022-09-21T19:13:38.709Z,10.60
2022-09-21T19:16:12.607Z,10.40
2022-09-21T19:18:43.961Z,10.50
2022-09-21T19:21:17.750Z,10.30
2022-09-21T19:23:56.796Z,10.30
2022-09-21T19:26:29.313Z,10.40
2022-09-21T19:29:18.930Z,10.40
2022-09-21T19:31:46.987Z,10.30
2022-09-21T19:34:15.998Z,10.10
2022-09-21T19:36:44.150Z,10.20
2022-09-21T19:39:12.365Z,10.30
2022-09-21T19:41:54.652Z,10.20
2022-09-21T19:44:39.391Z,10.20
2022-09-21T19:47:12.060Z,10.20
2022-09-21T19:49:47.326Z,10.20
2022-09-21T19:52:38.356Z,10.30
2022-09-21T19:55:29.798Z,10.20
2022-09-21T19:58:17.458Z,10.10
2022-09-21T20:00:45.953Z,10.00
2022-09-21T20:03:15.274Z,9.60
2022-09-21T20:05:48.232Z,9.40
2022-09-21T20:08:27.647Z,9.50
2022-09-21T20:11:05.602Z,9.50
2022-09-21T20:13:58.027Z,9.30
2022-09-21T20:16:37.453Z,9.10
2022-09-21T20:19:08.696Z,9.10
2022-09-21T20:24:35.799Z,8.90
2022-09-21T20:29:52.121Z,9.00
2022-09-21T20:32:20.496Z,9.00
2022-09-21T20:34:50.309Z,9.00
2022-09-21T20:37:19.385Z,8.90
2022-09-21T20:39:47.903Z,8.90
2022-09-21T20:42:18.709Z,8.80
2022-09-21T20:44:50.072Z,8.70
2022-09-21T20:50:58.409Z,8.80
2022-09-21T20:53:26.585Z,9.10
2022-09-21T20:56:07.173Z,9.00
2022-09-21T21:02:37.179Z,8.90
2022-09-21T21:05:05.742Z,8.30
2022-09-21T21:07:36.492Z,8.30
2022-09-21T21:10:24.804Z,8.10
2022-09-21T21:12:52.954Z,8.10
2022-09-21T21:15:31.450Z,8.10
2022-09-21T21:17:59.930Z,8.00
2022-09-21T21:20:30.294Z,7.90
2022-09-21T21:23:03.392Z,8.00
2022-09-21T21:25:34.059Z,8.20
2022-09-21T21:28:02.800Z,7.90
2022-09-21T21:30:43.553Z,7.70
2022-09-21T21:33:11.966Z,7.70
2022-09-21T21:35:40.501Z,7.70
2022-09-21T21:38:10.901Z,7.80
2022-09-21T21:40:56.776Z,7.50
2022-09-21T21:43:25.065Z,7.50
2022-09-21T21:46:02.331Z,7.60
2022-09-21T21:48:31.114Z,7.40
2022-09-21T21:51:02.466Z,7.30
2022-09-21T21:53:33.988Z,7.30
2022-09-21T21:56:06.166Z,7.30
2022-09-21T21:59:24.083Z,7.10
2022-09-21T22:01:58.855Z,7.20
2022-09-21T22:04:58.292Z,7.10
2022-09-21T22:07:26.652Z,7.20
2022-09-21T22:10:15.251Z,7.00
2022-09-21T22:12:44.040Z,7.00
2022-09-21T22:15:12.828Z,6.90
2022-09-21T22:17:44.224Z,6.90
2022-09-21T22:20:12.316Z,6.90
2022-09-21T22:22:40.675Z,6.80
2022-09-21T22:25:10.236Z,6.70
2022-09-21T22:27:39.681Z,6.80
2022-09-21T22:30:13.488Z,6.80
2022-09-21T22:32:47.411Z,7.00
2022-09-21T22:35:16.178Z,6.60
2022-09-21T22:37:44.078Z,6.60
2022-09-21T22:40:13.809Z,6.40
2022-09-21T22:42:43.230Z,6.30
2022-09-21T22:45:12.147Z,6.30
2022-09-21T22:47:41.757Z,6.40
2022-09-21T22:50:11.742Z,6.50
2022-09-21T22:52:48.889Z,6.40
2022-09-21T22:55:25.320Z,6.40
2022-09-21T22:58:07.028Z,6.40
2022-09-21T23:00:35.279Z,6.40
2022-09-21T23:03:52.504Z,6.40
2022-09-21T23:09:28.822Z,6.30
2022-09-21T23:11:57.212Z,6.30
2022-09-21T23:14:29.152Z,6.20
2022-09-21T23:16:57.352Z,6.20
2022-09-21T23:19:25.672Z,6.00
2022-09-21T23:21:53.947Z,5.80
2022-09-21T23:24:25.100Z,6.00
2022-09-21T23:26:53.357Z,6.10
2022-09-21T23:29:23.514Z,5.80
2022-09-21T23:31:52.844Z,5.90
2022-09-21T23:34:21.090Z,5.70
2022-09-21T23:36:49.247Z,5.90
2022-09-21T23:39:17.314Z,6.10
2022-09-21T23:41:53.272Z,5.80
2022-09-21T23:44:21.359Z,5.70
2022-09-21T23:46:49.594Z,5.60
2022-09-21T23:49:19.064Z,5.70
2022-09-21T23:51:47.489Z,5.70
2022-09-21T23:54:16.493Z,5.60
2022-09-21T23:56:45.072Z,5.60
2022-09-21T23:59:52.877Z,5.50
